createdAt,value
2024-03-08T00:01:20.722Z,0.16
2024-03-08T00:03:23.824Z,-0.38
2024-03-08T00:05:26.422Z,-0.02
2024-03-08T00:07:29.583Z,0.23
2024-03-08T00:09:32.149Z,-0.19
2024-03-08T00:11:37.182Z,0.07
2024-03-08T00:13:39.950Z,-0.18
2024-03-08T00:15:43.136Z,0.32
2024-03-08T00:17:46.675Z,-0.47
2024-03-08T00:19:49.983Z,-0.83
2024-03-08T00:21:52.867Z,-0.08
2024-03-08T00:23:58.003Z,-0.27
2024-03-08T00:26:00.746Z,-1.00
2024-03-08T00:28:03.330Z,-0.62
2024-03-08T00:30:07.332Z,-0.49
2024-03-08T00:32:10.640Z,-0.59
2024-03-08T00:34:13.521Z,-0.12
2024-03-08T00:36:16.463Z,-0.32
2024-03-08T00:38:20.530Z,-0.76
2024-03-08T00:40:23.985Z,-0.59
2024-03-08T00:42:26.457Z,-0.79
2024-03-08T00:44:28.963Z,-0.43
2024-03-08T00:46:33.112Z,-0.52
2024-03-08T00:48:36.086Z,-0.52
2024-03-08T00:50:38.604Z,-0.16
2024-03-08T00:52:41.180Z,-0.60
2024-03-08T00:54:45.149Z,-0.32
2024-03-08T00:56:47.768Z,-0.94
2024-03-08T00:58:50.430Z,-0.36
2024-03-08T01:00:52.970Z,-0.88
2024-03-08T01:02:55.372Z,-0.98
2024-03-08T01:04:57.629Z,-0.29
2024-03-08T01:07:00.815Z,-0.62
2024-03-08T01:09:03.801Z,-0.89
2024-03-08T01:11:06.520Z,-0.57
2024-03-08T01:13:09.138Z,-0.60
2024-03-08T01:15:14.925Z,-0.58
2024-03-08T01:17:17.469Z,-0.81
2024-03-08T01:19:20.012Z,-1.09
2024-03-08T01:21:24.049Z,-1.25
2024-03-08T01:23:26.469Z,-0.54
2024-03-08T01:25:29.326Z,-1.09
2024-03-08T01:27:32.465Z,-0.84
2024-03-08T01:29:34.886Z,-0.95
2024-03-08T01:31:38.214Z,-0.42
2024-03-08T01:33:41.731Z,-0.65
2024-03-08T01:35:44.623Z,-1.17
2024-03-08T01:37:46.963Z,-0.86
2024-03-08T01:39:49.784Z,-0.66
2024-03-08T01:41:52.396Z,-0.70
2024-03-08T01:43:55.565Z,-1.21
2024-03-08T01:46:01.599Z,-1.11
2024-03-08T01:48:04.304Z,-1.19
2024-03-08T01:50:10.349Z,-0.77
2024-03-08T01:52:12.885Z,-0.92
2024-03-08T01:54:18.016Z,-0.76
2024-03-08T01:56:21.119Z,-1.56
2024-03-08T01:58:24.432Z,-0.74
2024-03-08T02:00:28.017Z,-1.13
2024-03-08T02:02:36.286Z,-1.04
2024-03-08T02:04:40.073Z,-1.15
2024-03-08T02:06:42.733Z,-0.97
2024-03-08T02:08:46.795Z,-0.95
2024-03-08T02:10:50.927Z,-0.71
2024-03-08T02:12:54.300Z,-1.00
2024-03-08T02:14:56.926Z,-1.06
2024-03-08T02:17:03.510Z,-1.13
2024-03-08T02:19:06.116Z,-1.13
2024-03-08T02:21:10.183Z,-1.05
2024-03-08T02:23:13.050Z,-0.90
2024-03-08T02:25:16.144Z,-1.02
2024-03-08T02:27:26.177Z,-0.60
2024-03-08T02:29:29.144Z,-0.60
2024-03-08T02:31:31.910Z,-1.40
2024-03-08T02:33:34.544Z,-1.02
2024-03-08T02:35:38.147Z,-1.16
2024-03-08T02:37:40.553Z,-1.10
2024-03-08T02:39:43.383Z,-1.07
2024-03-08T02:41:45.973Z,-0.55
2024-03-08T02:43:49.095Z,-1.09
2024-03-08T02:45:52.209Z,-1.12
2024-03-08T02:47:55.357Z,-1.04
2024-03-08T02:49:58.481Z,-0.53
2024-03-08T02:52:01.101Z,-0.77
2024-03-08T02:54:05.515Z,-1.58
2024-03-08T02:56:10.663Z,-1.07
2024-03-08T02:58:13.800Z,-0.92
2024-03-08T03:00:17.250Z,-0.77
2024-03-08T03:02:20.046Z,-1.25
2024-03-08T03:04:22.574Z,-1.29
2024-03-08T03:06:25.043Z,-1.29
2024-03-08T03:08:27.845Z,-1.47
2024-03-08T03:10:30.330Z,-1.10
2024-03-08T03:12:35.188Z,-1.24
2024-03-08T03:14:39.866Z,-0.79
2024-03-08T03:16:44.991Z,-1.15
2024-03-08T03:18:47.862Z,-1.21
2024-03-08T03:20:51.201Z,-1.54
2024-03-08T03:22:54.205Z,-1.24
2024-03-08T03:24:59.472Z,-1.27
2024-03-08T03:27:01.813Z,-1.04
2024-03-08T03:29:05.131Z,-1.34
2024-03-08T03:31:10.627Z,-0.96
2024-03-08T03:33:14.319Z,-1.50
2024-03-08T03:35:17.464Z,-1.48
2024-03-08T03:37:21.420Z,-1.19
2024-03-08T03:39:24.609Z,-0.87
2024-03-08T03:41:27.609Z,-0.73
2024-03-08T03:43:30.116Z,-1.20
2024-03-08T03:45:37.215Z,-1.40
2024-03-08T03:47:40.760Z,-1.46
2024-03-08T03:49:44.170Z,-1.06
2024-03-08T03:51:47.036Z,-1.28
2024-03-08T03:53:50.091Z,-1.40
2024-03-08T03:55:53.545Z,-1.29
2024-03-08T03:57:57.153Z,-1.48
2024-03-08T03:59:59.983Z,-1.38
2024-03-08T04:02:02.565Z,-1.48
2024-03-08T04:04:06.621Z,-1.37
2024-03-08T04:06:10.139Z,-1.23
2024-03-08T04:08:13.198Z,-1.13
2024-03-08T04:10:16.003Z,-1.34
2024-03-08T04:12:18.597Z,-1.13
2024-03-08T04:14:21.022Z,-1.37
2024-03-08T04:16:23.625Z,-0.96
2024-03-08T04:18:26.729Z,-1.43
2024-03-08T04:20:29.332Z,-1.38
2024-03-08T04:22:32.295Z,-1.37
2024-03-08T04:24:35.246Z,-1.04
2024-03-08T04:26:38.087Z,-1.34
2024-03-08T04:28:41.102Z,-1.57
2024-03-08T04:30:43.565Z,-1.91
2024-03-08T04:32:48.011Z,-1.50
2024-03-08T04:34:50.855Z,-1.04
2024-03-08T04:36:53.619Z,-1.42
2024-03-08T04:38:56.575Z,-1.12
2024-03-08T04:41:00.773Z,-1.20
2024-03-08T04:43:04.596Z,-1.07
2024-03-08T04:45:09.899Z,-1.92
2024-03-08T04:47:13.289Z,-1.45
2024-03-08T04:49:16.445Z,-1.61
2024-03-08T04:51:21.177Z,-1.57
2024-03-08T04:53:23.580Z,-1.40
2024-03-08T04:55:26.305Z,-0.97
2024-03-08T04:57:29.498Z,-1.09
2024-03-08T04:59:32.091Z,-1.31
2024-03-08T05:01:34.794Z,-1.59
2024-03-08T05:03:37.405Z,-1.22
2024-03-08T05:05:39.779Z,-1.40
2024-03-08T05:07:42.346Z,-1.91
2024-03-08T05:09:52.918Z,-1.59
2024-03-08T05:11:55.972Z,-1.54
2024-03-08T05:14:00.343Z,-1.33
2024-03-08T05:16:02.992Z,-1.15
2024-03-08T05:18:05.838Z,-2.00
2024-03-08T05:20:09.737Z,-2.12
2024-03-08T05:22:12.577Z,-1.54
2024-03-08T05:24:17.840Z,-1.93
2024-03-08T05:26:20.612Z,-1.53
2024-03-08T05:28:23.057Z,-2.14
2024-03-08T05:30:25.763Z,-1.51
2024-03-08T05:32:30.563Z,-1.55
2024-03-08T05:34:34.666Z,-1.21
2024-03-08T05:36:37.352Z,-1.56
2024-03-08T05:38:39.817Z,-1.91
2024-03-08T05:40:44.702Z,-1.54
2024-03-08T05:42:47.977Z,-0.98
2024-03-08T05:44:51.157Z,-1.36
2024-03-08T05:46:54.670Z,-1.48
2024-03-08T05:48:57.448Z,-1.81
2024-03-08T05:51:01.826Z,-1.35
2024-03-08T05:53:04.675Z,-1.40
2024-03-08T05:55:09.306Z,-1.36
2024-03-08T05:57:12.579Z,-1.18
2024-03-08T05:59:15.359Z,-1.26
2024-03-08T06:01:18.263Z,-1.38
2024-03-08T06:03:23.309Z,-1.17
2024-03-08T06:05:26.711Z,-0.66
2024-03-08T06:07:29.416Z,-1.05
2024-03-08T06:09:32.311Z,-0.82
2024-03-08T06:11:34.925Z,-0.66
2024-03-08T06:13:38.132Z,-0.99
2024-03-08T06:15:41.130Z,-0.42
2024-03-08T06:17:44.297Z,-1.10
2024-03-08T06:19:48.071Z,-0.59
2024-03-08T06:21:50.834Z,-0.44
2024-03-08T06:23:56.659Z,-0.29
2024-03-08T06:25:59.566Z,0.22
2024-03-08T06:28:02.138Z,-0.12
2024-03-08T06:30:06.372Z,-0.24
2024-03-08T06:32:09.064Z,-0.17
2024-03-08T06:34:13.141Z,0.04
2024-03-08T06:36:20.579Z,-0.26
2024-03-08T06:38:23.262Z,0.79
2024-03-08T06:40:26.246Z,0.52
2024-03-08T06:42:36.778Z,0.28
2024-03-08T06:44:43.627Z,0.17
2024-03-08T06:46:46.509Z,0.73
2024-03-08T06:48:51.300Z,0.57
2024-03-08T06:50:54.099Z,0.90
2024-03-08T06:52:56.842Z,0.24
2024-03-08T06:54:59.497Z,0.26
2024-03-08T06:57:02.462Z,1.13
2024-03-08T06:59:14.092Z,1.64
2024-03-08T07:01:16.970Z,1.12
2024-03-08T07:03:23.594Z,0.87
2024-03-08T07:05:30.115Z,1.21
2024-03-08T07:07:35.429Z,1.28
2024-03-08T07:09:38.404Z,1.41
2024-03-08T07:11:44.885Z,1.05
2024-03-08T07:13:48.412Z,1.34
2024-03-08T07:15:51.219Z,1.83
2024-03-08T07:17:54.558Z,1.65
2024-03-08T07:19:58.717Z,1.84
2024-03-08T07:22:01.580Z,1.92
2024-03-08T07:24:11.199Z,1.87
2024-03-08T07:26:21.456Z,2.33
2024-03-08T07:28:24.019Z,1.99
2024-03-08T07:30:46.132Z,1.97
2024-03-08T07:32:49.742Z,2.03
2024-03-08T07:34:53.145Z,2.61
2024-03-08T07:36:58.363Z,2.18
2024-03-08T07:39:02.131Z,2.71
2024-03-08T07:41:05.954Z,2.05
2024-03-08T07:43:12.730Z,2.43
2024-03-08T07:45:17.928Z,2.17
2024-03-08T07:47:23.586Z,2.14
2024-03-08T07:49:27.823Z,3.21
2024-03-08T07:51:30.683Z,2.96
2024-03-08T07:53:33.330Z,2.93
2024-03-08T07:55:36.940Z,3.22
2024-03-08T07:57:39.585Z,2.73
2024-03-08T07:59:42.198Z,2.97
2024-03-08T08:01:45.617Z,2.94
2024-03-08T08:03:50.204Z,3.03
2024-03-08T08:05:52.793Z,3.11
2024-03-08T08:07:55.572Z,2.91
2024-03-08T08:10:23.733Z,3.09
2024-03-08T08:12:26.916Z,3.51
2024-03-08T08:14:29.270Z,4.09
2024-03-08T08:16:32.012Z,3.80
2024-03-08T08:18:34.976Z,4.14
2024-03-08T08:20:37.615Z,3.94
2024-03-08T08:22:47.398Z,4.55
2024-03-08T08:24:49.763Z,4.19
2024-03-08T08:26:52.465Z,4.05
2024-03-08T08:28:56.269Z,3.94
2024-03-08T08:30:59.043Z,3.99
2024-03-08T08:33:02.374Z,4.32
2024-03-08T08:35:14.170Z,5.03
2024-03-08T08:37:20.004Z,5.12
2024-03-08T08:39:24.525Z,4.63
2024-03-08T08:41:28.487Z,4.96
2024-03-08T08:43:30.986Z,5.34
2024-03-08T08:45:34.656Z,5.87
2024-03-08T08:47:37.649Z,5.52
2024-03-08T08:49:40.695Z,5.27
2024-03-08T08:51:43.550Z,5.29
2024-03-08T08:53:46.947Z,5.20
2024-03-08T08:55:50.156Z,5.76
2024-03-08T08:57:53.910Z,5.49
2024-03-08T08:59:57.049Z,5.59
2024-03-08T09:01:59.918Z,5.37
2024-03-08T09:04:02.890Z,4.84
2024-03-08T09:06:06.152Z,5.50
2024-03-08T09:08:09.940Z,5.09
2024-03-08T09:12:19.116Z,5.37
2024-03-08T09:14:21.923Z,4.95
2024-03-08T09:16:24.358Z,5.73
2024-03-08T09:18:26.937Z,5.82
2024-03-08T09:20:31.127Z,5.16
2024-03-08T09:22:33.716Z,5.34
2024-03-08T09:24:36.341Z,6.02
2024-03-08T09:26:39.530Z,5.57
2024-03-08T09:28:42.130Z,5.03
2024-03-08T09:30:54.048Z,4.70
2024-03-08T09:33:02.216Z,4.87
2024-03-08T09:35:08.452Z,5.05
2024-03-08T09:37:11.293Z,4.75
2024-03-08T09:39:18.525Z,4.82
2024-03-08T09:41:20.825Z,5.51
2024-03-08T09:43:23.562Z,5.10
2024-03-08T09:45:27.398Z,4.93
2024-03-08T09:47:35.358Z,5.40
2024-03-08T09:49:39.115Z,5.57
2024-03-08T09:51:42.102Z,5.41
2024-03-08T09:53:45.438Z,5.75
2024-03-08T09:55:51.096Z,5.29
2024-03-08T09:58:14.599Z,5.82
2024-03-08T10:00:24.800Z,5.92
2024-03-08T10:02:27.984Z,5.75
2024-03-08T10:04:32.414Z,5.98
2024-03-08T10:06:35.194Z,6.30
2024-03-08T10:08:38.134Z,6.31
2024-03-08T10:10:41.306Z,6.43
2024-03-08T10:12:43.666Z,6.31
2024-03-08T10:14:47.931Z,6.65
2024-03-08T10:16:50.729Z,6.98
2024-03-08T10:18:55.181Z,6.99
2024-03-08T10:21:10.239Z,6.56
2024-03-08T10:23:13.176Z,6.82
2024-03-08T10:25:16.135Z,6.69
2024-03-08T10:27:19.342Z,6.71
2024-03-08T10:29:23.075Z,6.96
2024-03-08T10:31:25.893Z,6.41
2024-03-08T10:33:29.739Z,7.09
2024-03-08T10:35:33.326Z,7.00
2024-03-08T10:37:51.592Z,7.44
2024-03-08T10:40:12.567Z,7.11
2024-03-08T10:42:20.432Z,7.09
2024-03-08T10:44:32.523Z,7.67
2024-03-08T10:46:56.757Z,7.70
2024-03-08T10:49:04.276Z,7.62
2024-03-08T10:51:06.812Z,7.38
2024-03-08T10:53:12.936Z,7.45
2024-03-08T10:55:17.723Z,7.61
2024-03-08T10:57:23.112Z,7.61
2024-03-08T10:59:28.712Z,7.75
2024-03-08T11:01:32.143Z,7.39
2024-03-08T11:03:46.913Z,8.76
2024-03-08T11:05:50.226Z,8.48
2024-03-08T11:07:53.337Z,7.52
2024-03-08T11:09:57.908Z,7.75
2024-03-08T11:12:23.426Z,8.44
2024-03-08T11:14:53.346Z,8.04
2024-03-08T11:16:56.055Z,8.72
2024-03-08T11:19:07.188Z,8.77
2024-03-08T11:21:14.308Z,8.72
2024-03-08T11:23:24.670Z,9.30
2024-03-08T11:25:37.887Z,9.76
2024-03-08T11:27:40.745Z,9.69
2024-03-08T11:29:43.750Z,9.91
2024-03-08T11:31:47.653Z,9.31
2024-03-08T11:33:51.077Z,9.31
2024-03-08T11:35:53.702Z,9.53
2024-03-08T11:38:00.305Z,9.71
2024-03-08T11:40:06.150Z,9.91
2024-03-08T11:42:08.653Z,9.92
2024-03-08T11:44:13.352Z,9.40
2024-03-08T11:46:17.582Z,8.58
2024-03-08T11:48:20.152Z,8.65
2024-03-08T11:50:25.147Z,9.26
2024-03-08T11:52:28.272Z,9.69
2024-03-08T11:54:31.486Z,9.90
2024-03-08T11:56:33.913Z,9.88
2024-03-08T11:58:40.045Z,10.45
2024-03-08T12:00:42.802Z,10.13
2024-03-08T12:02:52.359Z,9.64
2024-03-08T12:04:59.328Z,9.02
2024-03-08T12:07:09.980Z,9.99
2024-03-08T12:09:14.393Z,9.71
2024-03-08T12:11:19.626Z,10.04
2024-03-08T12:13:23.192Z,9.81
2024-03-08T12:15:26.386Z,9.61
2024-03-08T12:17:29.767Z,9.94
2024-03-08T12:19:32.383Z,10.05
2024-03-08T12:21:36.082Z,10.31
2024-03-08T12:23:40.921Z,10.54
2024-03-08T12:25:43.940Z,11.47
2024-03-08T12:27:47.415Z,11.57
2024-03-08T12:29:49.957Z,11.37
2024-03-08T12:31:57.104Z,11.87
2024-03-08T12:34:02.165Z,11.72
2024-03-08T12:36:08.579Z,11.04
2024-03-08T12:38:11.110Z,10.64
2024-03-08T12:40:18.223Z,10.61
2024-03-08T12:42:20.943Z,10.07
2024-03-08T12:44:24.033Z,10.04
2024-03-08T12:46:27.978Z,10.25
2024-03-08T12:48:35.891Z,10.26
2024-03-08T12:50:38.484Z,10.59
2024-03-08T12:52:41.234Z,11.37
2024-03-08T12:54:44.309Z,11.29
2024-03-08T12:56:46.704Z,11.37
2024-03-08T12:58:49.336Z,11.65
2024-03-08T13:00:54.014Z,11.48
2024-03-08T13:02:57.329Z,12.00
2024-03-08T13:05:00.472Z,12.01
2024-03-08T13:07:03.175Z,11.87
2024-03-08T13:09:07.094Z,11.62
2024-03-08T13:11:10.416Z,11.41
2024-03-08T13:13:13.986Z,12.20
2024-03-08T13:15:21.907Z,12.11
2024-03-08T13:17:24.879Z,12.08
2024-03-08T13:19:30.066Z,12.09
2024-03-08T13:21:33.276Z,12.09
2024-03-08T13:23:41.566Z,11.48
2024-03-08T13:25:44.108Z,11.23
2024-03-08T13:27:50.375Z,11.64
2024-03-08T13:29:53.391Z,11.35
2024-03-08T13:31:58.193Z,11.65
2024-03-08T13:34:01.010Z,10.93
2024-03-08T13:36:09.828Z,10.35
2024-03-08T13:38:15.127Z,10.42
2024-03-08T13:40:20.328Z,10.10
2024-03-08T13:42:24.815Z,10.00
2024-03-08T13:44:29.308Z,10.39
2024-03-08T13:46:31.865Z,9.75
2024-03-08T13:48:35.352Z,9.79
2024-03-08T13:50:37.832Z,9.80
2024-03-08T13:52:41.381Z,9.51
2024-03-08T13:54:44.346Z,9.33
2024-03-08T13:56:48.035Z,9.42
2024-03-08T13:58:53.166Z,10.05
2024-03-08T14:00:56.804Z,10.29
2024-03-08T14:03:00.425Z,10.43
2024-03-08T14:05:04.209Z,11.31
2024-03-08T14:07:09.562Z,11.31
2024-03-08T14:09:18.390Z,11.50
2024-03-08T14:11:21.088Z,11.80
2024-03-08T14:13:23.678Z,11.63
2024-03-08T14:15:26.608Z,11.65
2024-03-08T14:17:32.671Z,11.79
2024-03-08T14:19:37.968Z,12.00
2024-03-08T14:21:40.966Z,11.79
2024-03-08T14:23:44.571Z,11.51
2024-03-08T14:25:47.959Z,11.02
2024-03-08T14:27:55.640Z,10.73
2024-03-08T14:29:58.581Z,11.18
2024-03-08T14:32:02.161Z,11.49
2024-03-08T14:34:05.349Z,11.28
2024-03-08T14:36:07.986Z,11.17
2024-03-08T14:38:12.064Z,11.17
2024-03-08T14:40:17.045Z,10.83
2024-03-08T14:42:20.672Z,9.98
2024-03-08T14:44:27.520Z,10.00
2024-03-08T14:46:31.093Z,9.36
2024-03-08T14:48:33.861Z,9.80
2024-03-08T14:50:38.637Z,9.22
2024-03-08T14:52:41.844Z,9.67
2024-03-08T14:54:44.958Z,9.66
2024-03-08T14:56:47.843Z,9.87
2024-03-08T14:58:53.850Z,9.37
2024-03-08T15:00:56.915Z,9.90
2024-03-08T15:02:59.812Z,9.81
2024-03-08T15:05:03.445Z,9.50
2024-03-08T15:07:07.371Z,9.12
2024-03-08T15:09:18.563Z,9.18
2024-03-08T15:11:24.967Z,8.42
2024-03-08T15:13:40.389Z,8.85
2024-03-08T15:15:45.204Z,8.82
2024-03-08T15:17:48.665Z,8.34
2024-03-08T15:19:52.064Z,7.79
2024-03-08T15:21:58.025Z,8.03
2024-03-08T15:24:01.448Z,7.85
2024-03-08T15:26:05.286Z,8.31
2024-03-08T15:28:14.550Z,8.12
2024-03-08T15:30:18.237Z,7.69
2024-03-08T15:32:23.629Z,7.94
2024-03-08T15:34:27.519Z,7.93
2024-03-08T15:36:32.292Z,8.27
2024-03-08T15:38:34.525Z,7.99
2024-03-08T15:40:36.849Z,7.66
2024-03-08T15:42:39.280Z,7.75
2024-03-08T15:44:44.977Z,7.41
2024-03-08T15:46:49.593Z,7.51
2024-03-08T15:48:55.624Z,7.58
2024-03-08T15:50:58.670Z,7.39
2024-03-08T15:53:00.950Z,7.45
2024-03-08T15:55:03.734Z,7.17
2024-03-08T15:57:09.850Z,7.47
2024-03-08T15:59:12.354Z,7.68
2024-03-08T16:01:17.903Z,6.96
2024-03-08T16:03:21.891Z,7.51
2024-03-08T16:05:24.416Z,7.61
2024-03-08T16:07:28.138Z,7.65
2024-03-08T16:09:30.856Z,7.43
2024-03-08T16:11:34.603Z,7.25
2024-03-08T16:13:39.636Z,7.81
2024-03-08T16:15:46.719Z,7.53
2024-03-08T16:17:50.470Z,7.34
2024-03-08T16:19:52.816Z,7.05
2024-03-08T16:21:55.402Z,7.36
2024-03-08T16:23:58.394Z,7.33
2024-03-08T16:26:01.007Z,7.57
2024-03-08T16:28:09.528Z,7.23
2024-03-08T16:30:17.116Z,7.59
2024-03-08T16:32:21.733Z,7.06
2024-03-08T16:34:24.735Z,6.69
2024-03-08T16:36:28.661Z,6.86
2024-03-08T16:38:33.758Z,6.84
2024-03-08T16:40:38.400Z,6.75
2024-03-08T16:42:41.382Z,6.60
2024-03-08T16:44:43.838Z,6.49
2024-03-08T16:46:48.021Z,6.50
2024-03-08T16:48:50.917Z,6.35
2024-03-08T16:50:56.063Z,5.97
2024-03-08T16:53:01.180Z,6.00
2024-03-08T16:55:08.180Z,5.97
2024-03-08T16:57:15.823Z,6.07
2024-03-08T16:59:18.263Z,5.54
2024-03-08T17:01:20.720Z,6.01
2024-03-08T17:03:23.183Z,5.71
2024-03-08T17:05:30.326Z,5.67
2024-03-08T17:07:34.671Z,5.42
2024-03-08T17:09:38.792Z,5.68
2024-03-08T17:11:41.493Z,5.67
2024-03-08T17:13:45.537Z,5.56
2024-03-08T17:15:50.484Z,5.34
2024-03-08T17:18:00.738Z,5.51
2024-03-08T17:20:08.169Z,5.09
2024-03-08T17:22:13.146Z,5.19
2024-03-08T17:24:18.598Z,4.83
2024-03-08T17:26:21.286Z,5.00
2024-03-08T17:28:23.999Z,4.96
2024-03-08T17:30:29.305Z,4.12
2024-03-08T17:32:35.269Z,4.29
2024-03-08T17:34:38.857Z,4.05
2024-03-08T17:36:42.053Z,4.04
2024-03-08T17:38:50.279Z,4.25
2024-03-08T17:40:53.175Z,3.81
2024-03-08T17:43:01.317Z,3.89
2024-03-08T17:45:07.224Z,3.53
2024-03-08T17:47:09.831Z,3.26
2024-03-08T17:49:13.176Z,2.85
2024-03-08T17:51:16.264Z,3.55
2024-03-08T17:53:20.306Z,3.08
2024-03-08T17:55:25.586Z,2.85
2024-03-08T17:57:28.837Z,3.08
2024-03-08T17:59:31.559Z,2.70
2024-03-08T18:01:37.319Z,2.74
2024-03-08T18:03:40.031Z,2.72
2024-03-08T18:05:47.114Z,2.43
2024-03-08T18:07:49.862Z,2.45
2024-03-08T18:09:52.613Z,2.35
2024-03-08T18:11:56.294Z,2.60
2024-03-08T18:13:58.942Z,2.18
2024-03-08T18:16:01.657Z,2.70
2024-03-08T18:18:06.428Z,2.74
2024-03-08T18:20:15.741Z,2.13
2024-03-08T18:22:18.517Z,1.96
2024-03-08T18:24:22.193Z,2.01
2024-03-08T18:26:25.865Z,1.42
2024-03-08T18:28:29.838Z,1.37
2024-03-08T18:30:33.828Z,1.56
2024-03-08T18:32:36.294Z,1.78
2024-03-08T18:34:43.609Z,1.49
2024-03-08T18:36:46.906Z,1.64
2024-03-08T18:38:50.366Z,1.62
2024-03-08T18:40:54.041Z,1.46
2024-03-08T18:42:57.504Z,1.17
2024-03-08T18:45:00.526Z,1.52
2024-03-08T18:47:03.069Z,1.37
2024-03-08T18:49:06.567Z,1.87
2024-03-08T18:51:09.234Z,1.57
2024-03-08T18:53:11.951Z,1.38
2024-03-08T18:55:23.007Z,1.55
2024-03-08T18:57:28.332Z,1.90
2024-03-08T18:59:32.301Z,1.80
2024-03-08T19:01:38.350Z,1.85
2024-03-08T19:03:43.005Z,1.26
2024-03-08T19:05:48.166Z,1.81
2024-03-08T19:07:56.226Z,1.08
2024-03-08T19:09:58.995Z,1.13
2024-03-08T19:12:04.836Z,1.26
2024-03-08T19:14:09.769Z,1.65
2024-03-08T19:16:17.514Z,1.59
2024-03-08T19:18:20.403Z,1.56
2024-03-08T19:20:25.863Z,1.33
2024-03-08T19:22:29.983Z,1.17
2024-03-08T19:24:36.577Z,0.98
2024-03-08T19:26:39.121Z,0.93
2024-03-08T19:28:41.893Z,1.30
2024-03-08T19:30:44.834Z,1.20
2024-03-08T19:32:47.820Z,1.47
2024-03-08T19:34:51.497Z,1.18
2024-03-08T19:36:55.030Z,1.23
2024-03-08T19:38:59.662Z,1.48
2024-03-08T19:41:04.239Z,1.06
2024-03-08T19:43:08.557Z,1.25
2024-03-08T19:45:11.755Z,1.07
2024-03-08T19:47:18.004Z,1.21
2024-03-08T19:49:20.983Z,1.19
2024-03-08T19:51:23.858Z,1.28
2024-03-08T19:53:27.225Z,1.25
2024-03-08T19:55:29.974Z,1.19
2024-03-08T19:57:32.813Z,1.53
2024-03-08T19:59:43.356Z,1.42
2024-03-08T20:01:46.734Z,1.16
2024-03-08T20:03:51.766Z,1.05
2024-03-08T20:05:56.917Z,1.04
2024-03-08T20:08:09.695Z,0.89
2024-03-08T20:10:16.841Z,1.01
2024-03-08T20:12:19.824Z,0.84
2024-03-08T20:14:22.914Z,0.39
2024-03-08T20:16:25.822Z,1.10
2024-03-08T20:18:28.707Z,0.70
2024-03-08T20:20:31.906Z,1.09
2024-03-08T20:22:34.684Z,0.04
2024-03-08T20:24:37.412Z,0.54
2024-03-08T20:26:40.463Z,0.10
2024-03-08T20:28:43.807Z,0.51
2024-03-08T20:30:48.579Z,0.42
2024-03-08T20:33:05.719Z,0.32
2024-03-08T20:35:12.105Z,0.42
2024-03-08T20:37:15.203Z,0.36
2024-03-08T20:39:17.621Z,0.32
2024-03-08T20:41:20.253Z,0.33
2024-03-08T20:43:25.340Z,0.61
2024-03-08T20:45:28.494Z,0.17
2024-03-08T20:47:36.935Z,0.25
2024-03-08T20:49:39.926Z,0.27
2024-03-08T20:51:43.158Z,0.78
2024-03-08T20:53:46.234Z,0.05
2024-03-08T20:55:50.389Z,0.12
2024-03-08T20:57:54.542Z,0.68
2024-03-08T20:59:57.532Z,0.64
2024-03-08T21:02:00.896Z,0.19
2024-03-08T21:04:05.466Z,-0.36
2024-03-08T21:06:09.154Z,0.40
2024-03-08T21:08:14.352Z,-0.25
2024-03-08T21:10:17.204Z,0.14
2024-03-08T21:12:22.466Z,0.40
2024-03-08T21:14:40.827Z,0.40
2024-03-08T21:16:51.680Z,0.19
2024-03-08T21:18:55.454Z,0.54
2024-03-08T21:20:57.840Z,-0.03
2024-03-08T21:23:01.325Z,-0.40
2024-03-08T21:25:05.626Z,-0.09
2024-03-08T21:27:09.473Z,-0.17
2024-03-08T21:29:12.375Z,-0.10
2024-03-08T21:31:15.496Z,0.09
2024-03-08T21:33:18.445Z,-0.09
2024-03-08T21:35:24.119Z,-0.12
2024-03-08T21:37:26.867Z,-0.13
2024-03-08T21:39:29.376Z,0.44
2024-03-08T21:41:32.233Z,-0.14
2024-03-08T21:43:36.414Z,0.30
2024-03-08T21:45:39.470Z,0.27
2024-03-08T21:47:42.451Z,0.39
2024-03-08T21:49:46.445Z,-0.13
2024-03-08T21:51:49.239Z,-0.24
2024-03-08T21:53:54.598Z,0.13
2024-03-08T21:55:58.782Z,-0.37
2024-03-08T21:58:01.487Z,-0.20
2024-03-08T22:00:13.983Z,-0.15
2024-03-08T22:02:17.080Z,-0.21
2024-03-08T22:04:21.738Z,-0.12
2024-03-08T22:06:24.453Z,-0.79
2024-03-08T22:08:28.258Z,-0.15
2024-03-08T22:10:31.160Z,-0.05
2024-03-08T22:12:35.574Z,-0.17
2024-03-08T22:14:38.728Z,0.00
2024-03-08T22:16:42.154Z,-0.22
2024-03-08T22:18:46.578Z,-0.11
2024-03-08T22:20:49.160Z,-0.05
2024-03-08T22:22:52.436Z,-0.28
2024-03-08T22:24:57.546Z,0.10
2024-03-08T22:27:02.315Z,-0.18
2024-03-08T22:29:05.508Z,-0.36
2024-03-08T22:31:08.693Z,0.12
2024-03-08T22:33:11.543Z,-0.36
2024-03-08T22:35:15.508Z,-0.25
2024-03-08T22:37:18.342Z,-0.07
2024-03-08T22:39:25.247Z,-0.40
2024-03-08T22:41:30.302Z,-0.38
2024-03-08T22:43:36.525Z,-0.07
2024-03-08T22:45:39.778Z,-0.58
2024-03-08T22:47:47.582Z,-0.33
2024-03-08T22:49:50.711Z,-0.62
2024-03-08T22:51:54.030Z,-0.53
2024-03-08T22:53:56.257Z,-0.89
2024-03-08T22:55:59.313Z,-0.61
2024-03-08T22:58:03.092Z,-0.48
2024-03-08T23:00:25.384Z,-0.01
2024-03-08T23:02:28.838Z,-1.19
2024-03-08T23:04:31.827Z,-0.88
2024-03-08T23:06:37.423Z,-0.88
2024-03-08T23:08:42.381Z,-0.80
2024-03-08T23:10:45.019Z,-0.89
2024-03-08T23:12:47.649Z,-1.04
2024-03-08T23:14:50.251Z,-0.53
2024-03-08T23:16:53.252Z,-0.66
2024-03-08T23:18:56.916Z,-0.66
2024-03-08T23:20:59.626Z,-1.25
2024-03-08T23:23:07.309Z,-0.68
2024-03-08T23:25:12.698Z,-0.93
2024-03-08T23:27:15.401Z,-1.37
2024-03-08T23:29:19.184Z,-0.63
2024-03-08T23:31:23.142Z,-1.28
2024-03-08T23:33:25.806Z,-0.92
2024-03-08T23:35:29.076Z,-0.27
2024-03-08T23:37:31.366Z,-1.18
2024-03-08T23:39:33.782Z,-1.13
2024-03-08T23:41:37.028Z,-0.38
2024-03-08T23:43:39.292Z,-0.67
2024-03-08T23:45:42.466Z,-0.68
2024-03-08T23:47:46.676Z,-0.20
2024-03-08T23:49:54.089Z,-0.44
2024-03-08T23:51:56.700Z,-0.31
2024-03-08T23:53:59.116Z,-0.41
2024-03-08T23:56:01.861Z,-0.17
2024-03-08T23:58:11.856Z,0.24
